sensor_id;sensor_type;location;lat;lon;timestamp;pressure;altitude;pressure_sealevel;temperature;humidity
23223;BME280;11780;13.904;100.620;2023-10-31T00:00:39;101349.53;;;29.65;70.75
23223;BME280;11780;13.904;100.620;2023-10-31T00:03:09;101358.38;;;29.62;70.76
23223;BME280;11780;13.904;100.620;2023-10-31T00:05:40;101358.06;;;29.63;70.80
23223;BME280;11780;13.904;100.620;2023-10-31T00:08:10;101374.09;;;29.61;70.52
23223;BME280;11780;13.904;100.620;2023-10-31T00:10:41;101386.47;;;29.64;70.49
23223;BME280;11780;13.904;100.620;2023-10-31T00:13:14;101388.13;;;29.65;70.45
23223;BME280;11780;13.904;100.620;2023-10-31T00:15:44;101392.00;;;29.64;70.79
23223;BME280;11780;13.904;100.620;2023-10-31T00:18:14;101398.31;;;29.65;70.69
23223;BME280;11780;13.904;100.620;2023-10-31T00:20:46;101401.06;;;29.65;70.84
23223;BME280;11780;13.904;100.620;2023-10-31T00:23:17;101400.78;;;29.66;70.73
23223;BME280;11780;13.904;100.620;2023-10-31T00:25:47;101401.91;;;29.65;70.36
23223;BME280;11780;13.904;100.620;2023-10-31T00:28:17;101405.78;;;29.64;70.69
23223;BME280;11780;13.904;100.620;2023-10-31T00:30:48;101410.97;;;29.66;70.79
23223;BME280;11780;13.904;100.620;2023-10-31T00:33:18;101418.44;;;29.65;70.57
23223;BME280;11780;13.904;100.620;2023-10-31T00:35:48;101421.69;;;29.67;70.43
23223;BME280;11780;13.904;100.620;2023-10-31T00:38:19;101423.97;;;29.65;70.70
23223;BME280;11780;13.904;100.620;2023-10-31T00:40:49;101431.63;;;29.68;70.79
23223;BME280;11780;13.904;100.620;2023-10-31T00:43:19;101447.03;;;29.69;70.51
23223;BME280;11780;13.904;100.620;2023-10-31T00:45:50;101445.41;;;29.68;70.52
23223;BME280;11780;13.904;100.620;2023-10-31T00:48:20;101453.38;;;29.70;70.60
23223;BME280;11780;13.904;100.620;2023-10-31T00:50:50;101463.31;;;29.71;70.54
23223;BME280;11780;13.904;100.620;2023-10-31T00:53:21;101457.78;;;29.71;70.50
23223;BME280;11780;13.904;100.620;2023-10-31T00:55:51;101464.94;;;29.72;70.75
23223;BME280;11780;13.904;100.620;2023-10-31T00:58:21;101458.91;;;29.70;70.34
23223;BME280;11780;13.904;100.620;2023-10-31T01:00:51;101456.94;;;29.70;70.74
23223;BME280;11780;13.904;100.620;2023-10-31T01:03:22;101452.56;;;29.69;70.79
23223;BME280;11780;13.904;100.620;2023-10-31T01:05:52;101459.13;;;29.73;70.38
23223;BME280;11780;13.904;100.620;2023-10-31T01:08:23;101471.84;;;29.69;70.49
23223;BME280;11780;13.904;100.620;2023-10-31T01:10:53;101470.53;;;29.67;70.16
23223;BME280;11780;13.904;100.620;2023-10-31T01:13:24;101471.84;;;29.69;70.72
23223;BME280;11780;13.904;100.620;2023-10-31T01:15:54;101483.41;;;29.71;70.63
23223;BME280;11780;13.904;100.620;2023-10-31T01:18:24;101487.59;;;29.69;70.35
23223;BME280;11780;13.904;100.620;2023-10-31T01:20:55;101496.41;;;29.71;70.59
23223;BME280;11780;13.904;100.620;2023-10-31T01:23:25;101495.56;;;29.70;70.50
23223;BME280;11780;13.904;100.620;2023-10-31T01:25:56;101498.03;;;29.72;70.68
23223;BME280;11780;13.904;100.620;2023-10-31T01:28:26;101506.00;;;29.73;70.71
23223;BME280;11780;13.904;100.620;2023-10-31T01:30:56;101500.47;;;29.73;70.53
23223;BME280;11780;13.904;100.620;2023-10-31T01:33:27;101505.69;;;29.75;70.39
23223;BME280;11780;13.904;100.620;2023-10-31T01:35:57;101505.69;;;29.75;70.54
23223;BME280;11780;13.904;100.620;2023-10-31T01:38:27;101507.06;;;29.77;70.56
23223;BME280;11780;13.904;100.620;2023-10-31T01:40:58;101514.50;;;29.77;70.39
23223;BME280;11780;13.904;100.620;2023-10-31T01:43:36;101522.47;;;29.78;70.76
23223;BME280;11780;13.904;100.620;2023-10-31T01:46:09;101520.84;;;29.77;70.72
23223;BME280;11780;13.904;100.620;2023-10-31T01:48:40;101526.94;;;29.74;70.37
23223;BME280;11780;13.904;100.620;2023-10-31T01:51:13;101522.75;;;29.77;70.48
23223;BME280;11780;13.904;100.620;2023-10-31T01:53:43;101531.88;;;29.77;70.55
23223;BME280;11780;13.904;100.620;2023-10-31T01:56:14;101535.16;;;29.80;70.74
23223;BME280;11780;13.904;100.620;2023-10-31T01:58:44;101539.03;;;29.78;70.73
23223;BME280;11780;13.904;100.620;2023-10-31T02:01:16;101546.72;;;29.82;70.37
23223;BME280;11780;13.904;100.620;2023-10-31T02:03:47;101560.50;;;29.82;70.61
23223;BME280;11780;13.904;100.620;2023-10-31T02:06:17;101552.72;;;29.84;70.34
23223;BME280;11780;13.904;100.620;2023-10-31T02:08:48;101560.19;;;29.83;70.50
23223;BME280;11780;13.904;100.620;2023-10-31T02:11:18;101560.50;;;29.82;70.42
23223;BME280;11780;13.904;100.620;2023-10-31T02:13:48;101564.06;;;29.82;70.46
23223;BME280;11780;13.904;100.620;2023-10-31T02:16:19;101566.25;;;29.85;70.41
23223;BME280;11780;13.904;100.620;2023-10-31T02:18:49;101565.41;;;29.85;70.23
23223;BME280;11780;13.904;100.620;2023-10-31T02:21:20;101570.63;;;29.86;70.47
23223;BME280;11780;13.904;100.620;2023-10-31T02:24:02;101569.00;;;29.85;70.74
23223;BME280;11780;13.904;100.620;2023-10-31T02:26:34;101567.03;;;29.86;70.18
23223;BME280;11780;13.904;100.620;2023-10-31T02:29:04;101562.94;;;29.83;70.17
23223;BME280;11780;13.904;100.620;2023-10-31T02:31:35;101561.00;;;29.84;70.05
23223;BME280;11780;13.904;100.620;2023-10-31T02:34:05;101566.50;;;29.84;69.89
23223;BME280;11780;13.904;100.620;2023-10-31T02:36:35;101565.13;;;29.86;69.83
23223;BME280;11780;13.904;100.620;2023-10-31T02:39:05;101558.50;;;29.87;70.47
23223;BME280;11780;13.904;100.620;2023-10-31T02:41:36;101564.81;;;29.88;70.45
23223;BME280;11780;13.904;100.620;2023-10-31T02:44:08;101564.28;;;29.86;70.26
23223;BME280;11780;13.904;100.620;2023-10-31T02:46:38;101559.28;;;29.88;70.15
23223;BME280;11780;13.904;100.620;2023-10-31T02:49:09;101557.06;;;29.90;70.10
23223;BME280;11780;13.904;100.620;2023-10-31T02:51:39;101556.25;;;29.89;69.78
23223;BME280;11780;13.904;100.620;2023-10-31T02:54:10;101541.63;;;29.89;70.25
23223;BME280;11780;13.904;100.620;2023-10-31T02:56:40;101532.81;;;29.87;70.38
23223;BME280;11780;13.904;100.620;2023-10-31T02:59:10;101533.88;;;29.91;70.20
23223;BME280;11780;13.904;100.620;2023-10-31T03:01:40;101527.25;;;29.92;70.13
23223;BME280;11780;13.904;100.620;2023-10-31T03:04:11;101512.34;;;29.93;70.00
23223;BME280;11780;13.904;100.620;2023-10-31T03:06:41;101518.94;;;29.97;70.09
23223;BME280;11780;13.904;100.620;2023-10-31T03:09:11;101509.84;;;29.97;70.05
23223;BME280;11780;13.904;100.620;2023-10-31T03:11:41;101508.41;;;29.99;70.24
23223;BME280;11780;13.904;100.620;2023-10-31T03:14:12;101506.75;;;29.98;70.45
23223;BME280;11780;13.904;100.620;2023-10-31T03:16:42;101503.41;;;30.01;70.21
23223;BME280;11780;13.904;100.620;2023-10-31T03:19:12;101502.28;;;30.02;70.48
23223;BME280;11780;13.904;100.620;2023-10-31T03:21:43;101491.25;;;30.02;70.52
23223;BME280;11780;13.904;100.620;2023-10-31T03:24:13;101497.28;;;30.04;70.08
23223;BME280;11780;13.904;100.620;2023-10-31T03:26:43;101488.50;;;30.02;69.95
23223;BME280;11780;13.904;100.620;2023-10-31T03:29:13;101487.91;;;30.05;69.54
23223;BME280;11780;13.904;100.620;2023-10-31T03:31:43;101489.84;;;30.05;69.49
23223;BME280;11780;13.904;100.620;2023-10-31T03:34:14;101478.50;;;30.06;69.73
23223;BME280;11780;13.904;100.620;2023-10-31T03:36:44;101463.06;;;30.05;69.98
23223;BME280;11780;13.904;100.620;2023-10-31T03:39:14;101462.75;;;30.07;69.55
23223;BME280;11780;13.904;100.620;2023-10-31T03:41:44;101459.72;;;30.08;68.83
23223;BME280;11780;13.904;100.620;2023-10-31T03:44:16;101455.84;;;30.10;69.44
23223;BME280;11780;13.904;100.620;2023-10-31T03:46:46;101453.09;;;30.10;68.92
23223;BME280;11780;13.904;100.620;2023-10-31T03:49:17;101453.59;;;30.12;69.16
23223;BME280;11780;13.904;100.620;2023-10-31T03:51:47;101449.72;;;30.13;69.30
23223;BME280;11780;13.904;100.620;2023-10-31T03:54:17;101450.53;;;30.13;68.66
23223;BME280;11780;13.904;100.620;2023-10-31T03:56:47;101442.25;;;30.13;68.40
23223;BME280;11780;13.904;100.620;2023-10-31T03:59:18;101436.75;;;30.13;68.83
23223;BME280;11780;13.904;100.620;2023-10-31T04:01:48;101436.41;;;30.15;68.83
23223;BME280;11780;13.904;100.620;2023-10-31T04:04:18;101434.50;;;30.15;68.57
23223;BME280;11780;13.904;100.620;2023-10-31T04:06:48;101429.50;;;30.17;68.08
23223;BME280;11780;13.904;100.620;2023-10-31T04:09:19;101429.19;;;30.19;68.52
23223;BME280;11780;13.904;100.620;2023-10-31T04:11:49;101425.63;;;30.18;68.02
23223;BME280;11780;13.904;100.620;2023-10-31T04:14:20;101418.16;;;30.19;68.17
23223;BME280;11780;13.904;100.620;2023-10-31T04:16:53;101420.91;;;30.19;68.05
23223;BME280;11780;13.904;100.620;2023-10-31T04:19:23;101413.16;;;30.21;68.02
23223;BME280;11780;13.904;100.620;2023-10-31T04:21:54;101410.38;;;30.21;68.23
23223;BME280;11780;13.904;100.620;2023-10-31T04:24:24;101403.22;;;30.20;67.63
23223;BME280;11780;13.904;100.620;2023-10-31T04:26:54;101396.59;;;30.21;67.55
23223;BME280;11780;13.904;100.620;2023-10-31T04:29:24;101393.84;;;30.21;67.96
23223;BME280;11780;13.904;100.620;2023-10-31T04:31:55;101385.75;;;30.25;68.19
23223;BME280;11780;13.904;100.620;2023-10-31T04:34:25;101382.19;;;30.24;68.08
23223;BME280;11780;13.904;100.620;2023-10-31T04:36:55;101374.72;;;30.25;68.14
23223;BME280;11780;13.904;100.620;2023-10-31T04:39:25;101372.47;;;30.27;67.85
23223;BME280;11780;13.904;100.620;2023-10-31T04:41:55;101368.59;;;30.28;68.09
23223;BME280;11780;13.904;100.620;2023-10-31T04:44:26;101367.78;;;30.27;68.21
23223;BME280;11780;13.904;100.620;2023-10-31T04:46:56;101360.00;;;30.29;68.28
23223;BME280;11780;13.904;100.620;2023-10-31T04:49:26;101351.44;;;30.31;67.99
23223;BME280;11780;13.904;100.620;2023-10-31T04:51:56;101340.41;;;30.31;67.59
23223;BME280;11780;13.904;100.620;2023-10-31T04:54:26;101327.72;;;30.30;67.10
23223;BME280;11780;13.904;100.620;2023-10-31T04:56:56;101320.25;;;30.30;67.78
23223;BME280;11780;13.904;100.620;2023-10-31T04:59:26;101320.75;;;30.32;67.20
23223;BME280;11780;13.904;100.620;2023-10-31T05:01:58;101312.19;;;30.34;67.01
23223;BME280;11780;13.904;100.620;2023-10-31T05:04:27;101307.47;;;30.34;66.99
23223;BME280;11780;13.904;100.620;2023-10-31T05:06:58;101305.84;;;30.33;67.20
23223;BME280;11780;13.904;100.620;2023-10-31T05:09:28;101298.91;;;30.36;67.22
23223;BME280;11780;13.904;100.620;2023-10-31T05:11:59;101294.00;;;30.33;67.38
23223;BME280;11780;13.904;100.620;2023-10-31T05:14:30;101283.16;;;30.36;67.00
23223;BME280;11780;13.904;100.620;2023-10-31T05:17:00;101277.63;;;30.36;66.92
23223;BME280;11780;13.904;100.620;2023-10-31T05:19:30;101268.22;;;30.37;66.71
23223;BME280;11780;13.904;100.620;2023-10-31T05:22:00;101264.34;;;30.38;66.87
23223;BME280;11780;13.904;100.620;2023-10-31T05:24:30;101266.59;;;30.36;66.11
23223;BME280;11780;13.904;100.620;2023-10-31T05:27:02;101256.88;;;30.39;66.34
23223;BME280;11780;13.904;100.620;2023-10-31T05:29:32;101243.91;;;30.40;66.35
23223;BME280;11780;13.904;100.620;2023-10-31T05:32:03;101245.72;;;30.44;66.54
23223;BME280;11780;13.904;100.620;2023-10-31T05:34:33;101241.84;;;30.45;66.71
23223;BME280;11780;13.904;100.620;2023-10-31T05:37:04;101236.31;;;30.45;66.18
23223;BME280;11780;13.904;100.620;2023-10-31T05:39:35;101237.75;;;30.43;65.98
23223;BME280;11780;13.904;100.620;2023-10-31T05:42:06;101233.56;;;30.45;66.73
23223;BME280;11780;13.904;100.620;2023-10-31T05:44:36;101226.09;;;30.46;66.81
23223;BME280;11780;13.904;100.620;2023-10-31T05:47:07;101215.88;;;30.46;66.65
23223;BME280;11780;13.904;100.620;2023-10-31T05:49:37;101211.16;;;30.47;66.52
23223;BME280;11780;13.904;100.620;2023-10-31T05:52:07;101211.66;;;30.49;66.72
23223;BME280;11780;13.904;100.620;2023-10-31T05:54:37;101211.38;;;30.50;66.40
23223;BME280;11780;13.904;100.620;2023-10-31T05:57:07;101209.09;;;30.52;66.29
23223;BME280;11780;13.904;100.620;2023-10-31T05:59:37;101201.66;;;30.53;66.15
23223;BME280;11780;13.904;100.620;2023-10-31T06:02:08;101201.66;;;30.53;66.26
23223;BME280;11780;13.904;100.620;2023-10-31T06:04:38;101191.41;;;30.53;66.60
23223;BME280;11780;13.904;100.620;2023-10-31T06:07:08;101188.38;;;30.55;66.62
23223;BME280;11780;13.904;100.620;2023-10-31T06:09:40;101177.34;;;30.55;65.91
23223;BME280;11780;13.904;100.620;2023-10-31T06:12:10;101179.50;;;30.58;65.79
23223;BME280;11780;13.904;100.620;2023-10-31T06:14:40;101175.09;;;30.57;65.45
23223;BME280;11780;13.904;100.620;2023-10-31T06:17:12;101173.97;;;30.58;65.13
23223;BME280;11780;13.904;100.620;2023-10-31T06:19:42;101168.44;;;30.58;65.10
23223;BME280;11780;13.904;100.620;2023-10-31T06:22:15;101170.09;;;30.59;65.21
23223;BME280;11780;13.904;100.620;2023-10-31T06:24:45;101169.25;;;30.59;65.25
23223;BME280;11780;13.904;100.620;2023-10-31T06:27:16;101168.44;;;30.58;65.60
23223;BME280;11780;13.904;100.620;2023-10-31T06:29:46;101159.03;;;30.59;65.63
23223;BME280;11780;13.904;100.620;2023-10-31T06:32:36;101157.06;;;30.60;65.63
23223;BME280;11780;13.904;100.620;2023-10-31T06:35:06;101147.34;;;30.62;65.60
23223;BME280;11780;13.904;100.620;2023-10-31T06:37:37;101137.44;;;30.61;65.60
23223;BME280;11780;13.904;100.620;2023-10-31T06:40:08;101129.97;;;30.62;65.63
23223;BME280;11780;13.904;100.620;2023-10-31T06:42:38;101132.41;;;30.63;66.10
23223;BME280;11780;13.904;100.620;2023-10-31T06:45:09;101107.28;;;30.65;65.72
23223;BME280;11780;13.904;100.620;2023-10-31T06:47:39;101106.44;;;30.64;65.93
23223;BME280;11780;13.904;100.620;2023-10-31T06:50:09;101098.66;;;30.66;65.90
23223;BME280;11780;13.904;100.620;2023-10-31T06:52:41;101093.13;;;30.66;66.20
23223;BME280;11780;13.904;100.620;2023-10-31T06:55:12;101089.25;;;30.67;66.25
23223;BME280;11780;13.904;100.620;2023-10-31T06:57:42;101080.97;;;30.67;66.35
23223;BME280;11780;13.904;100.620;2023-10-31T07:00:13;101075.13;;;30.69;65.91
23223;BME280;11780;13.904;100.620;2023-10-31T07:02:44;101078.19;;;30.67;66.33
23223;BME280;11780;13.904;100.620;2023-10-31T07:05:14;101066.03;;;30.68;65.88
23223;BME280;11780;13.904;100.620;2023-10-31T07:07:46;101066.84;;;30.69;66.40
23223;BME280;11780;13.904;100.620;2023-10-31T07:10:16;101060.19;;;30.70;66.24
23223;BME280;11780;13.904;100.620;2023-10-31T07:12:46;101055.78;;;30.69;65.97
23223;BME280;11780;13.904;100.620;2023-10-31T07:15:16;101050.78;;;30.71;65.62
23223;BME280;11780;13.904;100.620;2023-10-31T07:17:47;101044.44;;;30.71;66.20
23223;BME280;11780;13.904;100.620;2023-10-31T07:20:17;101043.31;;;30.72;65.56
23223;BME280;11780;13.904;100.620;2023-10-31T07:22:47;101044.13;;;30.72;65.39
23223;BME280;11780;13.904;100.620;2023-10-31T07:25:18;101035.84;;;30.72;65.59
23223;BME280;11780;13.904;100.620;2023-10-31T07:27:48;101035.84;;;30.72;65.88
23223;BME280;11780;13.904;100.620;2023-10-31T07:30:18;101037.78;;;30.72;65.78
23223;BME280;11780;13.904;100.620;2023-10-31T07:32:49;101035.53;;;30.74;65.97
23223;BME280;11780;13.904;100.620;2023-10-31T07:35:19;101022.03;;;30.72;65.70
23223;BME280;11780;13.904;100.620;2023-10-31T07:37:50;101016.22;;;30.74;65.80
23223;BME280;11780;13.904;100.620;2023-10-31T07:40:20;101020.91;;;30.73;66.39
23223;BME280;11780;13.904;100.620;2023-10-31T07:42:50;101019.25;;;30.72;66.37
23223;BME280;11780;13.904;100.620;2023-10-31T07:45:20;101018.97;;;30.74;66.08
23223;BME280;11780;13.904;100.620;2023-10-31T07:47:50;101015.72;;;30.72;66.20
23223;BME280;11780;13.904;100.620;2023-10-31T07:50:21;101020.09;;;30.73;66.21
23223;BME280;11780;13.904;100.620;2023-10-31T07:52:51;101007.59;;;30.75;66.30
23223;BME280;11780;13.904;100.620;2023-10-31T07:55:22;101000.78;;;30.73;66.26
23223;BME280;11780;13.904;100.620;2023-10-31T07:57:53;101006.59;;;30.71;65.63
23223;BME280;11780;13.904;100.620;2023-10-31T08:00:24;101010.19;;;30.72;65.96
23223;BME280;11780;13.904;100.620;2023-10-31T08:02:55;101009.06;;;30.73;65.80
23223;BME280;11780;13.904;100.620;2023-10-31T08:05:25;101012.31;;;30.75;66.06
23223;BME280;11780;13.904;100.620;2023-10-31T08:07:55;101000.78;;;30.73;65.65
23223;BME280;11780;13.904;100.620;2023-10-31T08:10:25;101007.94;;;30.74;65.87
23223;BME280;11780;13.904;100.620;2023-10-31T08:12:56;100995.75;;;30.75;66.12
23223;BME280;11780;13.904;100.620;2023-10-31T08:15:26;101000.44;;;30.74;66.31
23223;BME280;11780;13.904;100.620;2023-10-31T08:17:56;100999.31;;;30.75;66.41
23223;BME280;11780;13.904;100.620;2023-10-31T08:20:26;100999.63;;;30.74;65.91
23223;BME280;11780;13.904;100.620;2023-10-31T08:23:02;100994.13;;;30.74;65.91
23223;BME280;11780;13.904;100.620;2023-10-31T08:25:32;100999.63;;;30.74;65.93
23223;BME280;11780;13.904;100.620;2023-10-31T08:28:03;100989.72;;;30.73;66.10
23223;BME280;11780;13.904;100.620;2023-10-31T08:30:33;100987.75;;;30.73;66.18
23223;BME280;11780;13.904;100.620;2023-10-31T08:33:03;100986.13;;;30.72;66.40
23223;BME280;11780;13.904;100.620;2023-10-31T08:35:37;100992.66;;;30.76;66.49
23223;BME280;11780;13.904;100.620;2023-10-31T08:38:07;100985.00;;;30.73;66.26
23223;BME280;11780;13.904;100.620;2023-10-31T08:40:50;100983.53;;;30.76;66.68
23223;BME280;11780;13.904;100.620;2023-10-31T08:43:20;100985.50;;;30.75;66.25
23223;BME280;11780;13.904;100.620;2023-10-31T08:45:50;100984.69;;;30.75;66.28
23223;BME280;11780;13.904;100.620;2023-10-31T08:48:21;100981.44;;;30.73;65.74
23223;BME280;11780;13.904;100.620;2023-10-31T08:50:51;100983.88;;;30.74;66.42
23223;BME280;11780;13.904;100.620;2023-10-31T08:53:21;100981.94;;;30.75;66.52
23223;BME280;11780;13.904;100.620;2023-10-31T08:55:52;100978.03;;;30.76;66.26
23223;BME280;11780;13.904;100.620;2023-10-31T08:58:22;100978.03;;;30.76;66.31
23223;BME280;11780;13.904;100.620;2023-10-31T09:00:52;100973.31;;;30.76;66.40
23223;BME280;11780;13.904;100.620;2023-10-31T09:03:23;100965.84;;;30.77;66.82
23223;BME280;11780;13.904;100.620;2023-10-31T09:05:53;100971.38;;;30.77;66.58
23223;BME280;11780;13.904;100.620;2023-10-31T09:08:23;100965.03;;;30.76;66.33
23223;BME280;11780;13.904;100.620;2023-10-31T09:10:53;100973.00;;;30.78;66.25
23223;BME280;11780;13.904;100.620;2023-10-31T09:13:23;100974.47;;;30.75;66.25
23223;BME280;11780;13.904;100.620;2023-10-31T09:15:54;100969.72;;;30.76;66.15
23223;BME280;11780;13.904;100.620;2023-10-31T09:18:24;100971.38;;;30.77;66.41
23223;BME280;11780;13.904;100.620;2023-10-31T09:20:54;100971.38;;;30.77;66.62
23223;BME280;11780;13.904;100.620;2023-10-31T09:23:25;100978.84;;;30.76;66.84
23223;BME280;11780;13.904;100.620;2023-10-31T09:25:55;100968.13;;;30.75;66.22
23223;BME280;11780;13.904;100.620;2023-10-31T09:28:26;100981.63;;;30.76;66.08
23223;BME280;11780;13.904;100.620;2023-10-31T09:30:56;100981.78;;;30.80;66.32
23223;BME280;11780;13.904;100.620;2023-10-31T09:33:26;100978.03;;;30.76;66.21
23223;BME280;11780;13.904;100.620;2023-10-31T09:35:57;100974.97;;;30.77;66.30
23223;BME280;11780;13.904;100.620;2023-10-31T09:38:27;100978.84;;;30.76;66.27
23223;BME280;11780;13.904;100.620;2023-10-31T09:40:57;100989.56;;;30.78;66.59
23223;BME280;11780;13.904;100.620;2023-10-31T09:43:28;100981.78;;;30.80;66.74
23223;BME280;11780;13.904;100.620;2023-10-31T09:45:58;100995.91;;;30.78;66.38
23223;BME280;11780;13.904;100.620;2023-10-31T09:48:31;100993.47;;;30.77;66.08
23223;BME280;11780;13.904;100.620;2023-10-31T09:51:02;100995.09;;;30.78;65.99
23223;BME280;11780;13.904;100.620;2023-10-31T09:53:37;101002.25;;;30.79;65.98
23223;BME280;11780;13.904;100.620;2023-10-31T09:56:10;100994.78;;;30.79;65.64
23223;BME280;11780;13.904;100.620;2023-10-31T09:58:41;100994.28;;;30.77;65.72
23223;BME280;11780;13.904;100.620;2023-10-31T10:01:11;101001.44;;;30.78;65.41
23223;BME280;11780;13.904;100.620;2023-10-31T10:03:42;101000.31;;;30.79;65.18
23223;BME280;11780;13.904;100.620;2023-10-31T10:06:12;101008.91;;;30.78;65.87
23223;BME280;11780;13.904;100.620;2023-10-31T10:08:43;101007.75;;;30.79;65.29
23223;BME280;11780;13.904;100.620;2023-10-31T10:11:14;101020.44;;;30.80;65.55
23223;BME280;11780;13.904;100.620;2023-10-31T10:13:44;101023.22;;;30.80;65.77
23223;BME280;11780;13.904;100.620;2023-10-31T10:16:30;101024.03;;;30.80;65.69
23223;BME280;11780;13.904;100.620;2023-10-31T10:19:20;101021.91;;;30.77;66.02
23223;BME280;11780;13.904;100.620;2023-10-31T10:21:53;101020.44;;;30.80;65.88
23223;BME280;11780;13.904;100.620;2023-10-31T10:24:24;101026.59;;;30.77;65.78
23223;BME280;11780;13.904;100.620;2023-10-31T10:26:54;101021.56;;;30.79;65.24
23223;BME280;11780;13.904;100.620;2023-10-31T10:29:25;101022.06;;;30.81;64.86
23223;BME280;11780;13.904;100.620;2023-10-31T10:31:56;101024.66;;;30.77;65.92
23223;BME280;11780;13.904;100.620;2023-10-31T10:34:27;101027.09;;;30.79;65.85
23223;BME280;11780;13.904;100.620;2023-10-31T10:36:58;101024.34;;;30.79;66.33
23223;BME280;11780;13.904;100.620;2023-10-31T10:39:28;101033.75;;;30.78;66.34
23223;BME280;11780;13.904;100.620;2023-10-31T10:42:01;101033.75;;;30.78;65.75
23223;BME280;11780;13.904;100.620;2023-10-31T10:44:35;101041.22;;;30.77;66.05
23223;BME280;11780;13.904;100.620;2023-10-31T10:47:06;101040.72;;;30.75;65.85
23223;BME280;11780;13.904;100.620;2023-10-31T10:49:36;101038.78;;;30.76;66.23
23223;BME280;11780;13.904;100.620;2023-10-31T10:52:35;101044.78;;;30.78;65.98
23223;BME280;11780;13.904;100.620;2023-10-31T10:55:20;101053.41;;;30.76;65.66
23223;BME280;11780;13.904;100.620;2023-10-31T10:58:11;101055.03;;;30.77;65.98
23223;BME280;11780;13.904;100.620;2023-10-31T11:00:44;101059.72;;;30.77;65.97
23223;BME280;11780;13.904;100.620;2023-10-31T11:03:17;101067.72;;;30.78;66.27
23223;BME280;11780;13.904;100.620;2023-10-31T11:05:50;101072.41;;;30.78;66.20
23223;BME280;11780;13.904;100.620;2023-10-31T11:08:20;101076.81;;;30.79;65.58
23223;BME280;11780;13.904;100.620;2023-10-31T11:10:53;101080.69;;;30.78;66.25
23223;BME280;11780;13.904;100.620;2023-10-31T11:13:25;101086.22;;;30.78;66.12
23223;BME280;11780;13.904;100.620;2023-10-31T11:15:59;101080.19;;;30.76;64.93
23223;BME280;11780;13.904;100.620;2023-10-31T11:18:32;101092.56;;;30.78;66.26
23223;BME280;11780;13.904;100.620;2023-10-31T11:21:02;101098.91;;;30.79;65.48
23223;BME280;11780;13.904;100.620;2023-10-31T14:32:35;101381.06;;;30.25;68.90
23223;BME280;11780;13.904;100.620;2023-10-31T14:35:06;101377.41;;;30.30;68.82
23223;BME280;11780;13.904;100.620;2023-10-31T14:37:37;101371.47;;;30.36;68.68
23223;BME280;11780;13.904;100.620;2023-10-31T14:40:07;101380.19;;;30.44;68.37
23223;BME280;11780;13.904;100.620;2023-10-31T14:42:38;101382.81;;;30.49;68.13
23223;BME280;11780;13.904;100.620;2023-10-31T14:45:08;101389.38;;;30.53;67.61
23223;BME280;11780;13.904;100.620;2023-10-31T14:47:39;101383.78;;;30.58;67.92
23223;BME280;11780;13.904;100.620;2023-10-31T14:50:09;101383.69;;;30.63;67.70
23223;BME280;11780;13.904;100.620;2023-10-31T14:52:39;101381.75;;;30.64;67.25
23223;BME280;11780;13.904;100.620;2023-10-31T14:55:10;101393.00;;;30.67;67.40
23223;BME280;11780;13.904;100.620;2023-10-31T14:57:42;101390.44;;;30.71;67.35
23223;BME280;11780;13.904;100.620;2023-10-31T15:00:12;101385.84;;;30.66;67.00
23223;BME280;11780;13.904;100.620;2023-10-31T15:02:43;101393.31;;;30.66;67.27
23223;BME280;11780;13.904;100.620;2023-10-31T15:05:13;101396.34;;;30.64;67.17
23223;BME280;11780;13.904;100.620;2023-10-31T15:07:44;101395.25;;;30.65;67.27
23223;BME280;11780;13.904;100.620;2023-10-31T15:10:22;101399.63;;;30.66;67.19
23223;BME280;11780;13.904;100.620;2023-10-31T15:12:52;101398.50;;;30.67;67.12
23223;BME280;11780;13.904;100.620;2023-10-31T15:15:22;101402.69;;;30.79;67.48
23223;BME280;11780;13.904;100.620;2023-10-31T15:17:52;101400.44;;;30.81;67.50
23223;BME280;11780;13.904;100.620;2023-10-31T15:20:23;101399.84;;;30.84;67.50
23223;BME280;11780;13.904;100.620;2023-10-31T15:22:53;101400.34;;;30.86;67.86
23223;BME280;11780;13.904;100.620;2023-10-31T15:25:23;101400.34;;;30.86;67.81
23223;BME280;11780;13.904;100.620;2023-10-31T15:27:53;101397.28;;;30.88;67.64
23223;BME280;11780;13.904;100.620;2023-10-31T15:30:24;101402.81;;;30.88;67.28
23223;BME280;11780;13.904;100.620;2023-10-31T15:32:54;101397.59;;;30.86;67.50
23223;BME280;11780;13.904;100.620;2023-10-31T15:35:25;101399.22;;;30.87;67.18
23223;BME280;11780;13.904;100.620;2023-10-31T15:37:55;101406.69;;;30.87;67.34
23223;BME280;11780;13.904;100.620;2023-10-31T15:40:28;101399.75;;;30.75;67.51
23223;BME280;11780;13.904;100.620;2023-10-31T15:42:59;101391.25;;;30.72;67.16
23223;BME280;11780;13.904;100.620;2023-10-31T15:45:29;101389.09;;;30.68;67.24
23223;BME280;11780;13.904;100.620;2023-10-31T15:48:06;101380.31;;;30.66;67.43
23223;BME280;11780;13.904;100.620;2023-10-31T15:50:43;101382.75;;;30.68;67.34
23223;BME280;11780;13.904;100.620;2023-10-31T15:53:22;101380.63;;;30.65;67.58
23223;BME280;11780;13.904;100.620;2023-10-31T15:55:55;101378.38;;;30.67;67.54
23223;BME280;11780;13.904;100.620;2023-10-31T15:58:49;101380.91;;;30.63;67.67